Time;durP1;ratioP1;P1;durP2;ratioP2;P2;SDS_P1;SDS_P2;PMS_P1;PMS_P2;Temp;Humidity;BMP_temperature;BMP_pressure;BME280_temperature;BME280_humidity;BME280_pressure;Samples;Min_cycle;Max_cycle;Signal;HPM_P1;HPM_P2
2022/11/14 00:01:26;;;;;;;14.55;7.93;;;16.40;99.90;;;;;;5063260;28;20044;-71
2022/11/14 00:04:12;;;;;;;19.60;8.27;;;16.40;99.90;;;;;;5066276;28;20045;-71
2022/11/14 00:07:00;;;;;;;12.40;6.68;;;16.40;99.90;;;;;;5056922;28;20130;-73
2022/11/14 00:09:47;;;;;;;13.73;7.82;;;16.40;99.90;;;;;;5065140;28;20517;-71
2022/11/14 00:12:33;;;;;;;12.10;6.65;;;16.40;99.90;;;;;;5061875;28;20498;-73
2022/11/14 00:15:19;;;;;;;13.20;5.60;;;16.40;99.90;;;;;;5065044;28;20040;-71
2022/11/14 00:18:06;;;;;;;11.65;4.78;;;16.40;99.90;;;;;;5052605;28;20043;-71
2022/11/14 00:20:53;;;;;;;6.63;3.58;;;16.30;99.90;;;;;;5070482;28;20153;-75
2022/11/14 00:23:38;;;;;;;5.63;3.40;;;16.20;99.90;;;;;;5055736;28;20190;-71
2022/11/14 00:26:25;;;;;;;8.02;4.07;;;16.10;99.90;;;;;;5073156;28;20147;-73
2022/11/14 00:29:12;;;;;;;12.40;5.55;;;16.10;99.90;;;;;;5040666;28;20052;-72
2022/11/14 00:31:59;;;;;;;7.95;4.38;;;16.10;99.90;;;;;;5070487;28;20036;-70
2022/11/14 00:34:45;;;;;;;10.15;4.93;;;16.10;99.90;;;;;;5068944;28;20089;-71
2022/11/14 00:37:31;;;;;;;10.57;5.22;;;16.10;99.90;;;;;;5056789;28;20043;-70
2022/11/14 00:40:18;;;;;;;9.05;5.47;;;16.10;99.90;;;;;;5074670;28;20048;-70
2022/11/14 00:43:04;;;;;;;6.50;5.22;;;16.10;99.90;;;;;;5072392;28;20044;-71
2022/11/14 00:45:50;;;;;;;13.82;5.30;;;16.10;99.90;;;;;;5054971;28;20422;-70
2022/11/14 00:48:36;;;;;;;13.60;5.20;;;16.10;99.90;;;;;;5054115;28;20047;-71
2022/11/14 00:51:22;;;;;;;11.07;5.07;;;16.10;99.90;;;;;;5066400;28;20032;-71
2022/11/14 00:54:08;;;;;;;9.57;5.45;;;16.10;99.90;;;;;;5055836;28;20135;-71
2022/11/14 00:56:55;;;;;;;9.70;5.93;;;16.10;99.90;;;;;;5055564;28;20189;-69
2022/11/14 00:59:41;;;;;;;9.63;5.78;;;16.10;99.90;;;;;;5082721;28;20039;-70
2022/11/14 01:02:27;;;;;;;9.33;5.80;;;16.10;99.90;;;;;;5072377;28;20040;-70
2022/11/14 01:05:13;;;;;;;14.05;6.78;;;16.10;99.90;;;;;;5068675;28;20040;-71
2022/11/14 01:07:59;;;;;;;9.80;5.97;;;16.10;99.90;;;;;;5069392;28;20075;-69
2022/11/14 01:10:49;;;;;;;15.65;6.45;;;16.10;99.90;;;;;;5065231;28;20127;-69
2022/11/14 01:13:35;;;;;;;15.75;8.23;;;16.10;99.90;;;;;;5049268;28;20045;-70
2022/11/14 01:16:21;;;;;;;13.30;6.35;;;16.00;99.90;;;;;;5067097;28;20052;-71
2022/11/14 01:19:07;;;;;;;12.27;6.72;;;16.00;99.90;;;;;;5067847;28;20045;-69
2022/11/14 01:21:53;;;;;;;18.88;9.68;;;16.00;99.90;;;;;;5049542;28;20053;-70
2022/11/14 01:24:39;;;;;;;21.92;9.50;;;16.00;99.90;;;;;;5041371;28;20052;-70
2022/11/14 01:27:29;;;;;;;14.88;8.10;;;16.00;99.90;;;;;;5035499;28;20569;-71
2022/11/14 01:30:15;;;;;;;11.13;6.15;;;16.00;99.90;;;;;;5066660;28;20085;-69
2022/11/14 01:33:01;;;;;;;11.35;6.63;;;16.00;99.90;;;;;;5049107;28;20537;-69
2022/11/14 01:35:48;;;;;;;11.82;8.20;;;16.00;99.90;;;;;;5079587;28;20040;-69
2022/11/14 01:38:34;;;;;;;7.97;5.47;;;16.00;99.90;;;;;;5078160;28;20043;-74
2022/11/14 01:41:21;;;;;;;10.85;6.40;;;16.00;99.90;;;;;;5071558;28;20503;-69
2022/11/14 01:44:37;;;;;;;19.88;7.82;;;16.00;99.90;;;;;;5081490;28;20041;-70
2022/11/14 01:47:29;;;;;;;10.95;6.72;;;16.00;99.90;;;;;;5079097;28;20129;-71
2022/11/14 01:50:15;;;;;;;14.85;6.93;;;16.00;99.90;;;;;;5060794;28;20047;-71
2022/11/14 01:53:01;;;;;;;16.33;7.80;;;16.00;99.90;;;;;;5068953;28;20128;-71
2022/11/14 01:55:48;;;;;;;12.13;7.50;;;16.00;99.90;;;;;;5082076;28;20067;-72
2022/11/14 01:58:38;;;;;;;13.43;7.00;;;16.00;99.90;;;;;;5077205;28;20047;-72
2022/11/14 02:01:24;;;;;;;12.45;6.55;;;15.90;99.90;;;;;;5060536;28;20047;-74
2022/11/14 02:04:16;;;;;;;10.40;6.90;;;15.90;99.90;;;;;;5067484;28;20545;-76
2022/11/14 02:07:04;;;;;;;18.48;8.48;;;15.90;99.90;;;;;;5054602;28;20051;-72
2022/11/14 02:09:51;;;;;;;10.82;6.35;;;15.90;99.90;;;;;;5054181;28;20075;-72
2022/11/14 02:12:37;;;;;;;12.57;6.47;;;15.90;99.90;;;;;;5072040;28;20068;-72
2022/11/14 02:15:25;;;;;;;10.63;6.07;;;15.80;99.90;;;;;;5057099;28;20523;-76
2022/11/14 02:18:11;;;;;;;11.68;5.20;;;15.80;99.90;;;;;;5072274;28;20044;-74
2022/11/14 02:20:57;;;;;;;;;;;15.80;99.90;;;;;;5066164;28;20545;-71
2022/11/14 02:23:43;;;;;;;8.80;6.18;;;15.80;99.90;;;;;;5084280;28;20015;-73
2022/11/14 02:26:29;;;;;;;9.98;5.13;;;15.70;99.90;;;;;;5085739;28;20055;-72
2022/11/14 02:29:17;;;;;;;9.65;5.47;;;15.70;99.90;;;;;;5055853;28;20775;-72
2022/11/14 02:32:04;;;;;;;9.43;5.88;;;15.60;99.90;;;;;;5057859;28;20608;-71
2022/11/14 02:34:52;;;;;;;8.52;4.88;;;15.60;99.90;;;;;;5059187;28;20048;-72
2022/11/14 02:37:39;;;;;;;11.98;5.32;;;15.60;99.90;;;;;;5059701;28;20098;-71
2022/11/14 02:40:25;;;;;;;9.00;5.80;;;15.60;99.90;;;;;;5059687;28;20150;-72
2022/11/14 02:43:11;;;;;;;6.88;4.82;;;15.50;99.90;;;;;;5092275;28;20060;-70
2022/11/14 02:45:57;;;;;;;8.30;6.13;;;15.40;99.90;;;;;;5076431;28;20452;-73
2022/11/14 02:48:46;;;;;;;9.30;4.80;;;15.40;99.90;;;;;;5074195;28;20145;-72
2022/11/14 02:51:32;;;;;;;9.65;4.78;;;15.40;99.90;;;;;;5076890;28;20040;-70
2022/11/14 02:54:18;;;;;;;16.52;5.60;;;15.40;99.90;;;;;;5090771;28;20032;-70
2022/11/14 02:57:04;;;;;;;8.47;6.00;;;15.40;99.90;;;;;;5075473;28;20044;-71
2022/11/14 02:59:50;;;;;;;8.07;4.57;;;15.40;99.90;;;;;;5076070;28;20285;-69
2022/11/14 03:02:36;;;;;;;6.47;3.22;;;15.40;99.90;;;;;;5090907;28;20036;-69
2022/11/14 03:05:23;;;;;;;7.07;4.55;;;15.30;99.90;;;;;;5090888;28;20036;-70
2022/11/14 03:08:09;;;;;;;9.95;4.82;;;15.30;99.90;;;;;;5091275;28;20040;-69
2022/11/14 03:10:55;;;;;;;9.10;4.57;;;15.40;99.90;;;;;;5090462;28;20150;-70
2022/11/14 03:13:41;;;;;;;8.00;4.53;;;15.30;99.90;;;;;;5075760;28;20149;-71
2022/11/14 03:16:27;;;;;;;7.05;4.82;;;15.30;99.90;;;;;;5090464;28;20040;-73
2022/11/14 03:19:16;;;;;;;7.83;4.10;;;15.30;99.90;;;;;;5092169;28;20044;-71
2022/11/14 03:22:03;;;;;;;5.13;3.80;;;15.30;99.90;;;;;;5072521;28;20290;-69
2022/11/14 03:24:49;;;;;;;9.07;4.43;;;15.40;99.90;;;;;;5068928;28;20070;-70
2022/11/14 03:27:35;;;;;;;15.43;4.60;;;15.30;99.90;;;;;;5069612;28;20131;-71
2022/11/14 03:30:21;;;;;;;6.57;4.13;;;15.40;99.90;;;;;;5050454;28;20055;-71
2022/11/14 03:33:07;;;;;;;7.13;4.50;;;15.30;99.90;;;;;;5092720;28;20142;-71
2022/11/14 03:35:54;;;;;;;8.80;3.92;;;15.30;99.90;;;;;;5078622;28;20051;-71
2022/11/14 03:38:40;;;;;;;8.02;4.07;;;15.30;99.90;;;;;;5110201;28;20047;-71
2022/11/14 03:41:26;;;;;;;8.40;4.65;;;15.40;99.90;;;;;;5078346;28;20051;-70
2022/11/14 03:44:12;;;;;;;6.72;3.85;;;15.30;99.90;;;;;;5077723;28;20869;-71
2022/11/14 03:46:58;;;;;;;6.65;5.30;;;15.30;99.90;;;;;;5092043;28;20044;-69
2022/11/14 03:49:44;;;;;;;8.50;4.93;;;15.20;99.90;;;;;;5110367;28;20062;-70
2022/11/14 03:52:30;;;;;;;13.43;6.38;;;15.20;99.90;;;;;;5094807;28;20039;-70
2022/11/14 03:55:18;;;;;;;8.52;4.40;;;15.20;99.90;;;;;;5110031;28;20070;-70
2022/11/14 03:58:04;;;;;;;6.15;4.40;;;15.20;99.90;;;;;;5077635;28;20149;-71
2022/11/14 04:00:50;;;;;;;10.10;5.10;;;15.10;99.90;;;;;;5084434;28;20036;-72
2022/11/14 04:03:36;;;;;;;7.60;4.32;;;15.10;99.90;;;;;;5057484;28;20054;-72
2022/11/14 04:06:23;;;;;;;6.55;4.18;;;15.10;99.90;;;;;;5074029;28;20522;-70
2022/11/14 04:09:09;;;;;;;9.32;5.57;;;15.10;99.90;;;;;;5074054;28;20043;-70
2022/11/14 04:11:55;;;;;;;6.53;4.60;;;15.00;99.90;;;;;;5074222;28;20040;-70
2022/11/14 04:14:41;;;;;;;12.48;5.45;;;15.00;99.90;;;;;;5089875;28;20047;-71
2022/11/14 04:17:27;;;;;;;8.82;4.35;;;15.10;99.90;;;;;;5074041;28;20502;-70
2022/11/14 04:20:14;;;;;;;6.57;3.10;;;15.10;99.90;;;;;;5070803;28;20067;-69
2022/11/14 04:23:00;;;;;;;9.43;3.25;;;15.00;99.90;;;;;;5086893;28;20048;-70
2022/11/14 04:25:46;;;;;;;6.63;3.97;;;15.00;99.90;;;;;;5056796;28;20114;-70
2022/11/14 04:28:32;;;;;;;6.45;3.53;;;15.00;99.90;;;;;;5070516;28;20185;-69
2022/11/14 04:31:18;;;;;;;6.30;4.03;;;15.10;99.90;;;;;;5089163;28;20044;-70
2022/11/14 04:34:04;;;;;;;10.57;4.13;;;15.10;99.90;;;;;;5071570;28;20136;-70
2022/11/14 04:36:50;;;;;;;10.48;5.47;;;15.00;99.90;;;;;;5089325;28;20147;-72
2022/11/14 04:39:36;;;;;;;12.88;5.45;;;15.00;99.90;;;;;;5074428;28;20048;-69
2022/11/14 04:42:22;;;;;;;12.02;4.75;;;14.90;99.90;;;;;;5070868;28;20615;-71
2022/11/14 04:45:08;;;;;;;11.18;4.18;;;15.00;99.90;;;;;;5057571;28;20116;-70
2022/11/14 04:47:55;;;;;;;9.93;4.18;;;15.00;99.90;;;;;;5089408;28;20059;-69
2022/11/14 04:50:40;;;;;;;12.27;5.30;;;15.00;99.90;;;;;;5074695;28;20143;-71
2022/11/14 04:53:26;;;;;;;13.10;4.95;;;15.10;99.90;;;;;;5089125;28;20653;-70
2022/11/14 04:56:12;;;;;;;10.45;4.30;;;15.00;99.90;;;;;;5071143;28;20123;-70
2022/11/14 04:58:58;;;;;;;9.73;4.93;;;15.10;99.90;;;;;;5089579;28;20055;-69
2022/11/14 05:01:44;;;;;;;11.65;4.10;;;15.00;99.90;;;;;;5089115;28;20051;-70
2022/11/14 05:04:31;;;;;;;12.50;5.07;;;15.00;99.90;;;;;;5070690;28;21093;-70
2022/11/14 05:07:17;;;;;;;10.57;4.95;;;15.00;99.90;;;;;;5074036;28;20286;-70
2022/11/14 05:10:04;;;;;;;9.85;4.97;;;15.00;99.90;;;;;;5070996;28;20133;-70
2022/11/14 05:12:54;;;;;;;9.48;5.57;;;15.00;99.90;;;;;;5067943;28;20044;-70
2022/11/14 05:15:40;;;;;;;10.05;4.80;;;15.00;99.90;;;;;;5071271;28;20448;-70
2022/11/14 05:18:26;;;;;;;11.52;5.07;;;14.90;99.90;;;;;;5056269;28;20051;-70
2022/11/14 05:21:14;;;;;;;9.68;4.28;;;14.90;99.90;;;;;;5073682;28;20047;-70
2022/11/14 05:24:00;;;;;;;8.77;4.25;;;14.90;99.90;;;;;;5073679;28;20423;-71
2022/11/14 05:26:46;;;;;;;10.27;4.95;;;14.90;99.90;;;;;;5088510;28;20051;-69
2022/11/14 05:29:32;;;;;;;8.23;5.07;;;14.90;99.90;;;;;;5073876;28;20059;-70
2022/11/14 05:32:19;;;;;;;7.50;4.18;;;15.00;99.90;;;;;;5072823;28;20051;-71
2022/11/14 05:35:05;;;;;;;8.85;5.03;;;15.00;99.90;;;;;;5088020;28;20047;-70
2022/11/14 05:37:51;;;;;;;9.07;4.35;;;15.10;99.90;;;;;;5087393;28;20525;-69
2022/11/14 05:40:39;;;;;;;9.40;4.97;;;15.10;99.90;;;;;;5056430;28;20624;-70
2022/11/14 05:43:29;;;;;;;11.32;5.63;;;15.10;99.90;;;;;;5055637;28;20052;-70
2022/11/14 05:46:16;;;;;;;7.15;5.57;;;15.10;99.90;;;;;;5072522;28;20454;-69
2022/11/14 05:49:02;;;;;;;9.68;6.00;;;15.10;99.90;;;;;;5056084;28;20048;-70
2022/11/14 05:51:48;;;;;;;11.45;5.82;;;15.00;99.90;;;;;;5073938;28;20048;-70
2022/11/14 05:54:35;;;;;;;10.25;5.45;;;15.00;99.90;;;;;;5076245;28;20044;-71
2022/11/14 05:57:21;;;;;;;8.23;5.72;;;15.10;99.90;;;;;;5074376;28;20405;-69
2022/11/14 06:00:08;;;;;;;14.10;6.38;;;15.10;99.90;;;;;;5076300;28;20044;-70
2022/11/14 06:02:54;;;;;;;16.58;5.25;;;15.10;99.90;;;;;;5078138;28;20043;-71
2022/11/14 06:05:41;;;;;;;10.65;4.75;;;15.10;99.90;;;;;;5071669;28;20108;-69
2022/11/14 06:08:29;;;;;;;9.80;5.03;;;15.10;99.90;;;;;;5068976;28;20040;-71
2022/11/14 06:11:20;;;;;;;11.75;5.35;;;15.20;99.90;;;;;;5058173;28;20052;-73
2022/11/14 06:14:06;;;;;;;12.40;5.60;;;15.20;99.90;;;;;;5058123;28;20036;-69
2022/11/14 06:16:55;;;;;;;8.23;4.40;;;15.10;99.90;;;;;;5063941;28;20032;-71
2022/11/14 06:19:41;;;;;;;10.88;5.65;;;15.10;99.90;;;;;;5069227;28;20063;-70
2022/11/14 06:22:28;;;;;;;8.02;4.82;;;15.10;99.90;;;;;;5051182;28;20048;-72
2022/11/14 06:25:14;;;;;;;9.52;5.43;;;15.10;99.90;;;;;;5071957;28;20136;-74
2022/11/14 06:28:00;;;;;;;10.43;4.68;;;15.20;99.90;;;;;;5047011;28;20044;-70
2022/11/14 06:30:46;;;;;;;11.48;5.43;;;15.20;99.90;;;;;;5085622;28;20029;-70
2022/11/14 06:33:34;;;;;;;12.15;4.60;;;15.20;99.90;;;;;;5084284;28;20047;-70
2022/11/14 06:36:21;;;;;;;7.40;4.78;;;15.20;99.90;;;;;;5058079;28;20043;-71
2022/11/14 06:39:07;;;;;;;7.70;5.28;;;15.20;99.90;;;;;;5069010;28;20489;-71
2022/11/14 06:41:53;;;;;;;9.25;4.80;;;15.30;99.90;;;;;;5054751;28;20063;-71
2022/11/14 06:44:39;;;;;;;13.07;5.68;;;15.30;99.90;;;;;;5068312;28;20054;-71
2022/11/14 06:47:25;;;;;;;8.55;5.22;;;15.40;99.90;;;;;;5057722;28;20035;-69
2022/11/14 06:50:12;;;;;;;7.70;4.45;;;15.40;99.90;;;;;;5087949;28;20054;-71
2022/11/14 06:52:58;;;;;;;10.30;4.63;;;15.50;99.90;;;;;;5049656;28;20135;-70
2022/11/14 06:56:00;;;;;;;12.38;6.85;;;15.60;99.90;;;;;;5074665;28;20071;-71
2022/11/14 06:58:48;;;;;;;12.40;5.45;;;15.60;99.90;;;;;;5053222;28;20084;-70
2022/11/14 07:01:34;;;;;;;12.93;5.40;;;15.60;99.90;;;;;;5084017;28;20050;-70
2022/11/14 07:04:20;;;;;;;12.32;5.30;;;15.60;99.90;;;;;;5049662;28;20041;-70
2022/11/14 07:07:06;;;;;;;8.98;5.43;;;15.70;99.90;;;;;;5074822;28;20127;-70
2022/11/14 07:09:55;;;;;;;7.50;4.25;;;15.80;99.90;;;;;;5063965;28;20077;-71
2022/11/14 07:12:41;;;;;;;9.73;3.92;;;15.90;99.90;;;;;;5072707;28;20126;-71
2022/11/14 07:15:27;;;;;;;9.20;5.60;;;16.00;99.90;;;;;;5048027;28;20375;-72
2022/11/14 07:18:13;;;;;;;8.60;3.88;;;16.00;99.90;;;;;;5087886;28;20129;-70
2022/11/14 07:21:02;;;;;;;9.25;4.82;;;16.10;99.90;;;;;;5086602;28;20040;-71
2022/11/14 07:23:48;;;;;;;14.70;4.45;;;16.50;99.90;;;;;;5087782;28;20044;-70
2022/11/14 07:26:35;;;;;;;7.97;3.90;;;16.70;99.90;;;;;;5057474;28;20044;-72
2022/11/14 07:29:21;;;;;;;7.47;3.90;;;16.90;99.90;;;;;;5068135;28;20740;-71
2022/11/14 07:32:07;;;;;;;10.10;5.03;;;17.20;99.90;;;;;;5070533;28;20044;-70
2022/11/14 07:34:53;;;;;;;7.53;3.83;;;17.50;99.90;;;;;;5072395;28;20036;-70
2022/11/14 07:37:42;;;;;;;11.32;5.15;;;17.90;99.90;;;;;;5088573;28;20070;-70
2022/11/14 07:40:29;;;;;;;7.00;3.22;;;18.40;99.90;;;;;;5071829;28;20040;-70
2022/11/14 07:43:15;;;;;;;8.07;3.65;;;18.60;99.90;;;;;;5045401;28;20055;-69
2022/11/14 07:46:03;;;;;;;7.37;3.50;;;18.80;99.90;;;;;;5074425;28;20059;-69
2022/11/14 07:48:49;;;;;;;10.50;5.88;;;18.80;99.90;;;;;;5089961;28;21054;-69
2022/11/14 07:51:37;;;;;;;8.60;4.20;;;18.80;99.90;;;;;;5056723;28;20091;-69
2022/11/14 07:54:23;;;;;;;9.88;5.03;;;18.80;99.90;;;;;;5068900;28;20044;-69
2022/11/14 07:57:09;;;;;;;10.88;3.25;;;19.00;99.90;;;;;;5068500;28;20056;-69
2022/11/14 07:59:55;;;;;;;14.00;4.28;;;19.10;99.90;;;;;;5069617;28;20062;-69
2022/11/14 08:02:41;;;;;;;12.02;4.43;;;19.40;99.90;;;;;;5069166;28;20068;-69
2022/11/14 08:05:27;;;;;;;11.52;4.70;;;19.60;99.90;;;;;;5051779;28;20379;-69
2022/11/14 08:08:13;;;;;;;11.18;4.05;;;19.60;99.90;;;;;;5037396;28;20142;-69
2022/11/14 08:11:00;;;;;;;7.65;3.75;;;19.60;99.90;;;;;;5067770;28;20195;-70
2022/11/14 08:13:46;;;;;;;;;;;19.80;99.90;;;;;;5069421;28;20095;-70
2022/11/14 08:16:32;;;;;;;10.57;4.18;;;19.90;99.90;;;;;;5050678;28;19934;-71
2022/11/14 08:19:18;;;;;;;8.52;3.58;;;19.90;99.90;;;;;;5037527;28;20064;-69
2022/11/14 08:22:06;;;;;;;9.15;4.47;;;19.80;99.90;;;;;;5068345;28;20115;-69
2022/11/14 08:24:52;;;;;;;12.25;5.45;;;19.80;99.90;;;;;;5067633;28;20098;-69
2022/11/14 08:27:38;;;;;;;7.88;3.35;;;19.90;99.90;;;;;;5036815;28;20056;-72
2022/11/14 08:30:25;;;;;;;9.18;4.55;;;20.00;99.90;;;;;;5069045;28;20068;-69
2022/11/14 08:33:11;;;;;;;8.73;4.72;;;20.10;99.90;;;;;;5067797;28;20233;-69
2022/11/14 08:36:01;;;;;;;9.98;4.20;;;20.30;99.90;;;;;;5068806;28;20123;-70
2022/11/14 08:38:48;;;;;;;7.47;3.97;;;20.30;99.90;;;;;;5054063;28;20439;-69
2022/11/14 08:41:35;;;;;;;12.77;5.22;;;20.30;99.90;;;;;;5075732;28;20032;-69
2022/11/14 08:44:22;;;;;;;8.70;4.32;;;20.40;99.90;;;;;;5088789;28;20048;-70
2022/11/14 08:47:09;;;;;;;5.47;3.38;;;20.40;99.90;;;;;;5056132;28;20504;-68
2022/11/14 08:49:55;;;;;;;6.80;3.70;;;20.40;99.90;;;;;;5056446;28;20067;-68
2022/11/14 08:52:41;;;;;;;7.35;4.30;;;20.30;99.90;;;;;;5070860;28;20052;-69
2022/11/14 08:55:27;;;;;;;8.50;3.97;;;20.20;99.90;;;;;;5088778;28;20374;-69
2022/11/14 08:58:14;;;;;;;6.68;3.75;;;20.30;99.90;;;;;;5056439;28;20406;-70
2022/11/14 09:01:01;;;;;;;10.18;3.83;;;20.40;99.90;;;;;;5088468;28;20110;-69
2022/11/14 09:03:48;;;;;;;4.20;2.60;;;20.50;99.90;;;;;;5070756;28;20040;-68
2022/11/14 09:06:35;;;;;;;5.15;2.35;;;20.40;99.90;;;;;;5087503;28;20509;-68
2022/11/14 09:09:21;;;;;;;9.13;3.80;;;20.20;99.90;;;;;;5063867;28;20409;-69
2022/11/14 09:12:07;;;;;;;4.97;3.75;;;20.10;99.90;;;;;;5065530;28;20051;-71
2022/11/14 09:14:54;;;;;;;6.30;2.47;;;20.00;99.90;;;;;;4902265;28;20078;-69
2022/11/14 09:17:40;;;;;;;7.43;4.05;;;20.10;99.90;;;;;;5070009;28;20586;-70
2022/11/14 09:20:29;;;;;;;4.88;2.35;;;20.40;99.90;;;;;;5087125;28;20139;-73
2022/11/14 09:23:17;;;;;;;4.68;2.50;;;20.70;99.90;;;;;;5075488;28;20485;-70
2022/11/14 09:26:08;;;;;;;4.07;2.30;;;21.00;99.90;;;;;;5070484;28;20054;-72
2022/11/14 09:28:54;;;;;;;9.35;3.10;;;21.10;99.90;;;;;;5076397;28;20409;-70
2022/11/14 09:31:40;;;;;;;5.25;2.78;;;21.00;99.90;;;;;;5078378;28;20040;-71
2022/11/14 09:34:26;;;;;;;4.20;2.83;;;21.00;99.90;;;;;;5065544;28;20139;-70
2022/11/14 09:37:13;;;;;;;7.07;3.13;;;21.00;99.90;;;;;;5072212;28;20051;-69
2022/11/14 09:40:00;;;;;;;5.65;3.20;;;20.80;99.90;;;;;;5069560;28;20048;-69
2022/11/14 09:42:48;;;;;;;;;;;20.50;99.90;;;;;;5088665;28;20052;-69
2022/11/14 09:45:38;;;;;;;4.05;2.47;;;20.40;99.90;;;;;;5070309;28;19985;-69
2022/11/14 09:48:28;;;;;;;6.97;2.33;;;20.20;99.90;;;;;;5087480;28;20051;-69
2022/11/14 09:51:28;;;;;;;7.60;3.33;;;20.40;99.90;;;;;;5055552;28;20063;-70
2022/11/14 09:54:14;;;;;;;3.25;2.47;;;20.40;99.90;;;;;;5072265;28;20131;-71
2022/11/14 09:57:00;;;;;;;5.43;3.00;;;20.50;99.90;;;;;;5056163;28;20155;-69
2022/11/14 09:59:48;;;;;;;4.93;2.50;;;20.90;99.90;;;;;;5072466;28;20048;-69
2022/11/14 10:03:01;;;;;;;4.35;2.47;;;21.00;99.90;;;;;;5087478;28;20119;-70
2022/11/14 10:06:07;;;;;;;2.92;2.30;;;21.20;99.90;;;;;;5054430;28;20067;-69
2022/11/14 10:09:21;;;;;;;5.85;2.35;;;21.10;99.90;;;;;;5055609;28;20040;-69
2022/11/14 10:12:35;;;;;;;3.67;2.17;;;21.10;99.90;;;;;;5069832;28;20048;-70
2022/11/14 10:15:41;;;;;;;2.63;1.77;;;21.10;99.90;;;;;;5040596;28;20052;-71
2022/11/14 10:18:56;;;;;;;3.83;2.15;;;21.10;99.90;;;;;;5069786;28;20116;-70
2022/11/14 10:22:03;;;;;;;5.13;1.90;;;21.40;99.90;;;;;;5068738;28;20052;-68
2022/11/14 10:25:04;;;;;;;3.78;1.90;;;21.40;99.90;;;;;;5067452;28;20041;-69
2022/11/14 10:28:06;;;;;;;4.15;2.03;;;21.50;99.90;;;;;;5035576;28;20063;-69
2022/11/14 10:31:10;;;;;;;3.97;1.80;;;21.50;99.90;;;;;;5067887;28;20055;-69
2022/11/14 10:34:12;;;;;;;3.70;1.90;;;21.50;99.90;;;;;;5052724;28;20119;-69
2022/11/14 10:37:11;;;;;;;5.28;1.90;;;21.50;99.90;;;;;;5038985;28;20541;-71
2022/11/14 10:40:12;;;;;;;2.47;1.67;;;21.50;99.90;;;;;;5039521;28;20402;-71
2022/11/14 10:43:09;;;;;;;5.63;1.80;;;21.30;99.90;;;;;;5038871;28;20052;-69
2022/11/14 10:45:59;;;;;;;4.53;3.13;;;21.40;99.90;;;;;;5039187;28;20060;-70
2022/11/14 10:48:48;;;;;;;3.50;1.67;;;21.60;99.90;;;;;;5056276;28;20072;-69
2022/11/14 10:51:37;;;;;;;3.40;1.50;;;21.70;99.90;;;;;;5055860;28;20048;-70
2022/11/14 10:54:32;;;;;;;5.72;2.05;;;21.70;99.90;;;;;;5051740;28;20578;-71
2022/11/14 10:57:20;;;;;;;2.53;1.80;;;21.50;99.90;;;;;;5055540;28;20063;-70
2022/11/14 11:00:15;;;;;;;3.35;2.10;;;21.40;99.90;;;;;;5055739;28;20842;-70
2022/11/14 11:03:02;;;;;;;3.08;1.67;;;21.70;99.90;;;;;;5055327;28;20094;-71
2022/11/14 11:05:49;;;;;;;;;;;21.90;99.90;;;;;;5039345;28;20122;-69
2022/11/14 11:11:58;;;;;;;3.00;1.90;;;21.90;99.90;;;;;;5070819;28;20725;-71
2022/11/14 11:14:46;;;;;;;2.45;1.70;;;21.90;99.90;;;;;;5038594;28;20059;-70
2022/11/14 11:17:32;;;;;;;2.85;1.70;;;21.80;99.90;;;;;;5038038;28;20214;-71
2022/11/14 11:20:26;;;;;;;2.58;1.70;;;21.30;99.90;;;;;;5057030;28;20040;-71
2022/11/14 11:23:24;;;;;;;3.63;2.15;;;21.10;99.90;;;;;;5038512;28;20067;-69
2022/11/14 11:26:25;;;;;;;3.03;2.17;;;21.20;99.90;;;;;;5070079;28;20075;-69
2022/11/14 11:29:11;;;;;;;5.22;2.15;;;21.20;99.90;;;;;;5038096;28;20044;-70
2022/11/14 11:31:58;;;;;;;2.97;1.90;;;21.20;99.90;;;;;;5052085;28;20625;-69
2022/11/14 11:34:45;;;;;;;2.95;1.73;;;21.10;99.90;;;;;;5075855;28;20149;-69
2022/11/14 11:37:53;;;;;;;2.78;2.20;;;21.10;99.90;;;;;;5072295;28;20449;-70
2022/11/14 11:40:42;;;;;;;3.70;1.83;;;21.10;99.90;;;;;;5074454;28;20120;-70
2022/11/14 11:43:40;;;;;;;2.40;1.80;;;21.20;99.90;;;;;;5057155;28;20815;-71
2022/11/14 11:46:35;;;;;;;4.80;2.00;;;21.30;99.90;;;;;;5056533;28;20050;-69
2022/11/14 11:49:39;;;;;;;7.13;1.90;;;21.20;99.90;;;;;;5056971;28;20139;-70
2022/11/14 11:52:41;;;;;;;3.78;2.08;;;21.10;99.90;;;;;;5056455;28;20056;-71
2022/11/14 11:55:41;;;;;;;3.70;2.05;;;21.10;99.90;;;;;;5057244;28;20093;-69
2022/11/14 11:58:47;;;;;;;14.88;6.22;;;21.30;99.90;;;;;;5055851;28;20067;-70
2022/11/14 12:01:33;;;;;;;8.07;2.80;;;21.30;99.90;;;;;;5073114;28;20048;-69
2022/11/14 12:04:19;;;;;;;7.18;2.22;;;21.40;99.90;;;;;;5088651;28;20047;-70
2022/11/14 12:07:15;;;;;;;4.78;3.10;;;21.40;99.90;;;;;;5056479;28;20215;-70
2022/11/14 12:10:16;;;;;;;3.28;2.00;;;21.50;99.90;;;;;;5072918;28;20044;-69
2022/11/14 12:13:42;;;;;;;3.42;2.38;;;21.60;99.90;;;;;;5073748;28;20039;-71
2022/11/14 12:16:59;;;;;;;4.40;1.90;;;21.50;99.90;;;;;;5072717;28;20452;-71
2022/11/14 12:20:03;;;;;;;3.65;2.17;;;21.50;99.90;;;;;;5056556;28;20067;-70
2022/11/14 12:23:24;;;;;;;3.47;1.90;;;21.50;99.90;;;;;;5073504;28;20040;-69
2022/11/14 12:26:35;;;;;;;5.45;2.25;;;21.40;99.90;;;;;;5073360;28;20048;-70
2022/11/14 12:29:39;;;;;;;3.03;1.67;;;21.40;99.90;;;;;;5056767;28;20044;-70
2022/11/14 12:32:36;;;;;;;4.72;1.60;;;21.30;99.90;;;;;;5070298;28;20060;-69
2022/11/14 12:35:34;;;;;;;2.67;1.75;;;21.30;99.90;;;;;;5073691;28;20465;-70
2022/11/14 12:38:21;;;;;;;2.30;1.98;;;21.20;99.90;;;;;;5072638;28;20055;-70
2022/11/14 12:41:08;;;;;;;2.95;1.60;;;21.20;99.90;;;;;;5087184;28;20066;-71
2022/11/14 12:44:26;;;;;;;1.90;1.30;;;21.10;99.90;;;;;;5087614;28;20063;-71
2022/11/14 12:47:15;;;;;;;2.75;1.77;;;21.10;99.90;;;;;;5087844;28;20061;-69
2022/11/14 12:50:23;;;;;;;2.95;1.98;;;21.30;99.90;;;;;;5072873;28;20036;-69
2022/11/14 12:53:36;;;;;;;3.78;2.50;;;21.30;99.90;;;;;;5087912;28;20047;-69
2022/11/14 12:56:32;;;;;;;10.13;2.28;;;21.20;99.90;;;;;;5070156;28;20048;-68
2022/11/14 12:59:21;;;;;;;3.13;1.30;;;21.10;99.90;;;;;;5069150;28;20051;-69
2022/11/14 13:02:31;;;;;;;4.10;1.63;;;21.00;99.90;;;;;;5069459;28;20059;-69
2022/11/14 13:05:23;;;;;;;3.28;1.42;;;21.00;99.90;;;;;;5055447;28;20409;-72
2022/11/14 13:08:40;;;;;;;2.20;1.50;;;21.00;99.90;;;;;;5072669;28;20059;-68
2022/11/14 13:21:44;;;;;;;3.70;2.13;;;20.70;99.90;;;;;;5088173;28;20071;-69
2022/11/14 13:24:53;;;;;;;3.03;1.85;;;20.70;99.90;;;;;;5071367;28;20575;-68
2022/11/14 13:27:39;;;;;;;3.58;1.98;;;20.50;99.90;;;;;;5070759;28;20486;-70
2022/11/14 13:31:16;;;;;;;4.28;2.55;;;20.50;99.90;;;;;;5069102;28;20063;-71
2022/11/14 13:34:36;;;;;;;4.50;2.47;;;20.50;99.90;;;;;;5069527;28;20140;-71
2022/11/14 13:38:03;;;;;;;2.83;1.75;;;20.60;99.90;;;;;;5072462;28;20059;-71
2022/11/14 13:41:08;;;;;;;3.22;1.98;;;20.40;99.90;;;;;;5087680;28;20528;-70
2022/11/14 13:43:59;;;;;;;2.33;1.45;;;20.40;99.90;;;;;;5087349;28;20064;-71
2022/11/14 13:47:24;;;;;;;3.35;1.70;;;20.40;99.90;;;;;;5072546;28;20142;-71
2022/11/14 13:50:29;;;;;;;3.75;1.98;;;20.40;99.90;;;;;;5087203;28;20068;-70
2022/11/14 13:53:22;;;;;;;3.67;1.98;;;20.40;99.90;;;;;;5087288;28;20040;-68
2022/11/14 13:56:33;;;;;;;6.63;2.72;;;20.40;99.90;;;;;;5054999;28;20133;-68
2022/11/14 13:59:56;;;;;;;3.13;1.60;;;20.40;99.90;;;;;;5087092;28;20048;-69
2022/11/14 14:03:36;;;;;;;4.00;1.52;;;20.40;99.90;;;;;;5082359;28;20046;-69
2022/11/14 14:07:13;;;;;;;2.03;1.40;;;20.40;99.90;;;;;;4998393;28;20064;-69
2022/11/14 14:10:25;;;;;;;2.00;1.30;;;20.30;99.90;;;;;;5060050;28;20063;-68
2022/11/14 14:13:45;;;;;;;2.28;1.58;;;20.30;99.90;;;;;;5054445;28;20777;-67
2022/11/14 14:16:53;;;;;;;5.30;2.50;;;20.30;99.90;;;;;;5059395;28;20747;-67
2022/11/14 14:19:48;;;;;;;4.13;1.80;;;20.30;99.90;;;;;;5075378;28;20115;-67
2022/11/14 14:22:34;;;;;;;2.50;1.70;;;20.30;99.90;;;;;;5079727;28;20406;-68
2022/11/14 14:25:49;;;;;;;5.15;2.53;;;20.20;99.90;;;;;;5089983;28;20039;-69
2022/11/14 14:28:49;;;;;;;5.80;1.80;;;20.10;99.90;;;;;;5070357;28;20070;-68
2022/11/14 14:31:38;;;;;;;4.13;2.47;;;20.00;99.90;;;;;;5070306;28;20107;-69
2022/11/14 14:34:28;;;;;;;3.40;1.90;;;19.90;99.90;;;;;;5058402;28;20769;-67
2022/11/14 14:37:23;;;;;;;2.78;1.80;;;19.80;99.90;;;;;;5070219;28;20052;-68
2022/11/14 14:40:34;;;;;;;3.40;1.95;;;19.80;99.90;;;;;;5090469;28;20916;-69
2022/11/14 14:43:32;;;;;;;3.38;2.08;;;19.70;99.90;;;;;;5071554;28;20123;-68
2022/11/14 14:46:30;;;;;;;3.40;1.88;;;19.70;99.90;;;;;;5069709;28;20044;-69
2022/11/14 14:49:24;;;;;;;4.10;2.17;;;19.60;99.90;;;;;;5091374;28;20040;-69
2022/11/14 14:52:31;;;;;;;3.15;1.80;;;19.60;99.90;;;;;;5084705;28;20101;-72
2022/11/14 14:55:29;;;;;;;6.53;1.83;;;19.50;99.90;;;;;;5088097;28;20118;-68
2022/11/14 14:58:22;;;;;;;3.20;1.90;;;19.40;99.90;;;;;;5063345;28;20632;-69
2022/11/14 15:01:17;;;;;;;3.67;2.22;;;19.40;99.90;;;;;;5053456;28;20147;-69
2022/11/14 15:04:12;;;;;;;2.90;1.80;;;19.30;99.90;;;;;;5052535;28;20044;-69